Time;durP1;ratioP1;P1;durP2;ratioP2;P2;SDS_P1;SDS_P2;PMS_P1;PMS_P2;Temp;Humidity;BMP_temperature;BMP_pressure;BME280_temperature;BME280_humidity;BME280_pressure;Samples;Min_cycle;Max_cycle;Signal;HPM_P1;HPM_P2
2020/12/29 00:01:44;;;;;;;3.28;2.67;;;3.30;99.90;;;;;;4936922;29;20177;-83
2020/12/29 00:04:20;;;;;;;3.08;2.70;;;3.20;99.90;;;;;;4919854;29;20228;-84
2020/12/29 00:06:53;;;;;;;2.78;2.55;;;3.20;99.90;;;;;;4945390;29;20189;-83
2020/12/29 00:09:21;;;;;;;2.83;2.55;;;2.80;99.90;;;;;;4928892;29;20210;-84
2020/12/29 00:11:49;;;;;;;3.45;2.47;;;3.10;99.90;;;;;;4957763;28;20242;-84
2020/12/29 00:14:17;;;;;;;2.97;2.30;;;3.10;99.90;;;;;;4957063;29;20561;-84
2020/12/29 00:16:46;;;;;;;2.95;2.50;;;3.10;99.90;;;;;;4950309;28;20192;-83
2020/12/29 00:19:20;;;;;;;3.83;2.60;;;3.10;99.90;;;;;;4938821;29;20204;-84
2020/12/29 00:21:46;;;;;;;3.33;2.53;;;3.00;99.90;;;;;;4917982;29;20195;-84
2020/12/29 00:24:15;;;;;;;3.13;2.70;;;2.60;99.90;;;;;;4938135;29;20525;-83
2020/12/29 00:26:44;;;;;;;3.35;2.75;;;2.90;99.90;;;;;;4948783;29;20517;-83
2020/12/29 00:29:09;;;;;;;4.00;3.30;;;2.90;99.90;;;;;;4934294;29;20276;-84
2020/12/29 00:31:37;;;;;;;3.67;2.90;;;2.80;99.90;;;;;;4954124;28;20443;-83
2020/12/29 00:34:05;;;;;;;2.85;2.50;;;2.80;99.90;;;;;;4952898;28;20476;-83
2020/12/29 00:36:36;;;;;;;3.42;2.78;;;2.80;99.90;;;;;;4938520;29;20176;-83
2020/12/29 00:39:04;;;;;;;2.60;2.40;;;2.70;99.90;;;;;;4955847;29;20235;-83
2020/12/29 00:41:31;;;;;;;3.47;2.75;;;2.60;99.90;;;;;;4937521;29;20324;-83
2020/12/29 00:43:59;;;;;;;5.05;3.10;;;2.60;99.90;;;;;;4938356;29;20207;-83
2020/12/29 00:46:25;;;;;;;3.63;2.60;;;2.70;99.90;;;;;;4952428;29;20626;-83
2020/12/29 00:48:56;;;;;;;3.47;3.10;;;2.50;99.90;;;;;;4952725;29;20677;-83
2020/12/29 00:51:23;;;;;;;3.40;3.10;;;2.20;99.90;;;;;;4945850;29;20199;-83
2020/12/29 00:53:57;;;;;;;3.80;2.83;;;2.30;99.90;;;;;;4972525;28;20559;-83
2020/12/29 00:56:29;;;;;;;4.28;3.20;;;2.20;99.90;;;;;;4934598;29;20204;-83
2020/12/29 00:58:56;;;;;;;3.58;3.20;;;2.30;99.90;;;;;;4928107;29;20207;-83
2020/12/29 01:01:27;;;;;;;2.78;2.53;;;2.40;99.90;;;;;;4948620;28;20173;-83
2020/12/29 01:04:11;;;;;;;2.60;2.40;;;2.30;99.90;;;;;;4950372;29;20276;-83
2020/12/29 01:06:38;;;;;;;5.68;2.88;;;2.40;99.90;;;;;;4902247;29;20185;-82
2020/12/29 01:09:14;;;;;;;2.97;2.67;;;2.30;99.90;;;;;;4920734;29;20238;-82
2020/12/29 01:11:41;;;;;;;9.93;2.83;;;2.40;99.90;;;;;;4954804;28;20309;-83
2020/12/29 01:14:08;;;;;;;2.97;2.65;;;2.10;99.90;;;;;;4960106;28;20547;-83
2020/12/29 01:16:46;;;;;;;2.95;2.65;;;2.40;99.90;;;;;;4933768;29;20256;-83
2020/12/29 01:19:15;;;;;;;3.05;2.63;;;2.30;99.90;;;;;;4947702;28;20224;-83
2020/12/29 01:21:41;;;;;;;3.97;2.88;;;2.10;99.90;;;;;;4968709;28;20535;-82
2020/12/29 01:24:07;;;;;;;3.23;2.93;;;2.20;99.90;;;;;;4945260;29;20192;-82
2020/12/29 01:26:33;;;;;;;5.32;3.00;;;2.00;99.90;;;;;;4917731;29;20488;-82
2020/12/29 01:28:59;;;;;;;3.50;2.93;;;1.80;99.90;;;;;;4926897;29;20572;-83
2020/12/29 01:31:25;;;;;;;3.33;2.60;;;2.20;99.90;;;;;;4936341;28;20432;-82
2020/12/29 01:33:52;;;;;;;3.38;2.95;;;1.70;99.90;;;;;;4950500;29;20548;-82
2020/12/29 01:36:21;;;;;;;4.30;3.10;;;2.00;99.90;;;;;;4930573;29;20232;-83
2020/12/29 01:38:47;;;;;;;2.95;2.67;;;2.00;99.90;;;;;;4918532;29;20276;-82
2020/12/29 01:41:17;;;;;;;2.90;2.65;;;2.20;99.90;;;;;;4922016;29;20219;-83
2020/12/29 01:43:43;;;;;;;4.47;3.17;;;1.60;99.90;;;;;;4936982;29;20277;-83
2020/12/29 01:46:09;;;;;;;3.30;2.80;;;1.90;99.90;;;;;;4967457;28;20188;-82
2020/12/29 01:48:37;;;;;;;3.00;2.60;;;1.80;99.90;;;;;;4936465;29;20451;-83
2020/12/29 01:51:09;;;;;;;5.78;3.35;;;1.40;99.90;;;;;;4936640;29;20463;-83
2020/12/29 01:53:39;;;;;;;2.67;2.45;;;1.80;99.90;;;;;;4936630;29;20200;-82
2020/12/29 01:56:08;;;;;;;4.10;3.70;;;1.70;99.90;;;;;;4937491;29;20188;-83
2020/12/29 01:58:41;;;;;;;5.95;3.20;;;1.60;99.90;;;;;;4938235;29;20181;-82
2020/12/29 02:01:07;;;;;;;5.22;3.00;;;1.70;99.90;;;;;;4966805;28;20227;-82
2020/12/29 02:03:35;;;;;;;3.20;2.90;;;1.80;99.90;;;;;;4918086;29;20222;-82
2020/12/29 02:06:04;;;;;;;3.95;2.72;;;1.60;99.90;;;;;;4917844;29;20193;-82
2020/12/29 02:08:33;;;;;;;4.00;3.40;;;1.70;99.90;;;;;;4951280;29;20263;-82
2020/12/29 02:11:00;;;;;;;5.00;3.20;;;1.50;99.90;;;;;;4955477;28;20192;-81
2020/12/29 02:13:26;;;;;;;4.60;3.05;;;1.60;99.90;;;;;;4951130;28;20515;-82
2020/12/29 02:15:51;;;;;;;5.47;3.03;;;1.60;99.90;;;;;;4934970;29;20208;-82
2020/12/29 02:18:19;;;;;;;4.30;3.10;;;1.70;99.90;;;;;;4951365;28;20468;-82
2020/12/29 02:20:45;;;;;;;5.20;3.30;;;1.70;99.90;;;;;;4928224;29;20471;-82
2020/12/29 02:23:11;;;;;;;2.70;2.47;;;1.80;99.90;;;;;;4936401;29;20286;-80
2020/12/29 02:25:42;;;;;;;4.38;2.60;;;1.70;99.90;;;;;;4924718;29;20441;-80
2020/12/29 02:28:17;;;;;;;3.22;2.63;;;1.70;99.90;;;;;;4951268;29;20255;-80
2020/12/29 02:30:50;;;;;;;3.85;2.60;;;1.40;99.90;;;;;;4932248;29;20271;-80
2020/12/29 02:33:18;;;;;;;3.30;2.80;;;1.30;99.90;;;;;;4934647;29;20189;-81
2020/12/29 02:35:49;;;;;;;3.80;2.72;;;1.60;99.90;;;;;;4950925;29;20212;-80
2020/12/29 02:38:22;;;;;;;3.95;3.60;;;1.60;99.90;;;;;;4934930;29;20188;-80
2020/12/29 02:40:51;;;;;;;3.13;2.85;;;1.60;99.90;;;;;;4963899;28;20716;-80
2020/12/29 02:43:20;;;;;;;3.88;3.05;;;1.60;99.90;;;;;;4941135;29;20533;-80
2020/12/29 02:45:48;;;;;;;3.37;2.87;;;1.50;99.90;;;;;;4948348;28;20290;-80
2020/12/29 02:48:19;;;;;;;2.92;2.60;;;1.30;99.90;;;;;;4925570;29;20495;-80
2020/12/29 02:50:47;;;;;;;5.32;3.20;;;1.50;99.90;;;;;;4982875;28;20196;-80
2020/12/29 02:53:15;;;;;;;3.83;3.10;;;1.60;99.90;;;;;;4916931;28;20201;-79
2020/12/29 02:55:46;;;;;;;4.22;2.83;;;1.40;99.90;;;;;;4916409;29;20232;-80
2020/12/29 02:58:14;;;;;;;3.42;2.83;;;1.30;99.90;;;;;;4935314;29;20196;-80
2020/12/29 03:00:48;;;;;;;3.85;2.95;;;1.30;99.90;;;;;;4935250;29;20173;-80
2020/12/29 03:03:18;;;;;;;4.28;2.50;;;1.20;99.90;;;;;;4933563;29;20340;-80
2020/12/29 03:05:49;;;;;;;5.05;3.10;;;1.30;99.90;;;;;;4917104;29;20263;-80
2020/12/29 03:08:15;;;;;;;4.55;3.38;;;1.40;99.90;;;;;;4948646;29;20195;-80
2020/12/29 03:10:41;;;;;;;3.60;3.27;;;1.40;99.90;;;;;;4952954;28;20630;-80
2020/12/29 03:13:14;;;;;;;7.30;3.60;;;1.10;99.90;;;;;;4900875;29;20465;-80
2020/12/29 03:15:44;;;;;;;3.70;2.90;;;1.30;99.90;;;;;;4960242;28;20204;-80
2020/12/29 03:18:15;;;;;;;5.40;3.40;;;1.40;99.90;;;;;;4940664;28;20674;-80
2020/12/29 03:20:41;;;;;;;3.85;3.45;;;1.20;99.90;;;;;;4917373;29;20560;-79
2020/12/29 03:23:12;;;;;;;3.92;3.25;;;0.80;99.90;;;;;;4932382;29;20221;-80
2020/12/29 03:25:38;;;;;;;4.72;3.20;;;1.10;99.90;;;;;;4919314;29;20523;-80
2020/12/29 03:28:11;;;;;;;3.70;3.00;;;1.10;99.90;;;;;;4954823;29;20588;-80
2020/12/29 03:30:39;;;;;;;4.70;2.92;;;1.00;99.90;;;;;;4908084;29;20206;-81
2020/12/29 03:33:05;;;;;;;3.45;3.05;;;1.20;99.90;;;;;;4938135;29;20184;-80
2020/12/29 03:35:41;;;;;;;3.88;3.17;;;1.30;99.90;;;;;;4954081;28;20220;-80
2020/12/29 03:38:09;;;;;;;3.75;3.40;;;1.00;99.90;;;;;;4951845;29;20866;-80
2020/12/29 03:40:39;;;;;;;8.50;4.40;;;1.00;99.90;;;;;;4953818;28;20642;-80
2020/12/29 03:43:13;;;;;;;6.75;4.35;;;1.00;99.90;;;;;;4920387;29;20587;-80
2020/12/29 03:45:47;;;;;;;5.43;3.78;;;1.00;99.90;;;;;;4935215;29;20189;-80
2020/12/29 03:48:18;;;;;;;5.18;4.05;;;1.00;99.90;;;;;;4952715;28;20215;-80
2020/12/29 03:50:54;;;;;;;4.40;3.40;;;1.10;99.90;;;;;;4934799;29;20265;-80
2020/12/29 03:53:20;;;;;;;4.03;3.53;;;0.40;99.90;;;;;;4919641;29;20189;-80
2020/12/29 03:55:50;;;;;;;5.13;3.60;;;1.00;99.90;;;;;;4934769;29;20532;-79
2020/12/29 03:58:21;;;;;;;6.10;3.63;;;1.20;99.90;;;;;;4950575;29;20210;-82
2020/12/29 04:00:51;;;;;;;4.43;3.20;;;0.50;99.90;;;;;;4929460;29;20244;-80
2020/12/29 04:03:22;;;;;;;5.90;3.17;;;1.00;99.90;;;;;;4920322;29;20162;-81
2020/12/29 04:05:49;;;;;;;3.53;3.20;;;1.10;99.90;;;;;;4942747;29;20236;-80
2020/12/29 04:08:15;;;;;;;3.63;3.07;;;1.00;99.90;;;;;;4949882;28;20185;-81
2020/12/29 04:10:48;;;;;;;3.42;3.03;;;1.00;99.90;;;;;;4936491;29;20441;-81
2020/12/29 04:13:16;;;;;;;4.55;3.42;;;1.20;99.90;;;;;;4923376;29;20276;-81
2020/12/29 04:15:47;;;;;;;4.63;3.17;;;0.60;99.90;;;;;;4953648;29;20747;-81
2020/12/29 04:18:13;;;;;;;3.80;3.20;;;1.00;99.90;;;;;;4945473;29;20464;-80
2020/12/29 04:20:41;;;;;;;4.10;3.55;;;1.10;99.90;;;;;;4949649;29;20272;-81
2020/12/29 04:23:09;;;;;;;4.47;2.70;;;1.00;99.90;;;;;;4935663;28;20281;-81
2020/12/29 04:25:42;;;;;;;4.30;3.20;;;0.80;99.90;;;;;;4937795;29;20531;-80
2020/12/29 04:28:12;;;;;;;3.85;3.42;;;0.80;99.90;;;;;;4926610;29;20197;-81
2020/12/29 04:30:40;;;;;;;4.70;2.88;;;0.80;99.90;;;;;;4918669;29;20207;-81
2020/12/29 04:33:14;;;;;;;4.38;3.30;;;0.80;99.90;;;;;;4929031;29;20204;-81
2020/12/29 04:35:45;;;;;;;6.53;4.05;;;0.70;99.90;;;;;;4936587;29;20248;-81
2020/12/29 04:38:18;;;;;;;4.50;3.55;;;1.00;99.90;;;;;;4951717;29;20185;-81
2020/12/29 04:40:46;;;;;;;8.55;4.35;;;0.80;99.90;;;;;;4965033;28;20188;-80
2020/12/29 04:43:19;;;;;;;5.80;5.07;;;0.80;99.90;;;;;;4903017;29;20185;-81
2020/12/29 04:45:45;;;;;;;9.98;4.00;;;0.80;99.90;;;;;;4919873;29;20189;-81
2020/12/29 04:48:14;;;;;;;5.50;4.47;;;0.70;99.90;;;;;;4937608;29;20209;-81
2020/12/29 04:50:49;;;;;;;8.38;5.13;;;0.60;99.90;;;;;;4924869;29;20185;-81
2020/12/29 04:53:23;;;;;;;5.28;3.88;;;0.90;99.90;;;;;;4953406;29;20203;-81
2020/12/29 04:55:55;;;;;;;4.85;3.63;;;0.80;99.90;;;;;;4934691;29;20713;-81
2020/12/29 04:58:31;;;;;;;7.18;3.65;;;0.30;99.90;;;;;;4939864;29;20192;-81
2020/12/29 05:01:01;;;;;;;3.55;2.95;;;0.60;99.90;;;;;;4902277;29;20182;-81
2020/12/29 05:03:42;;;;;;;6.15;2.90;;;0.50;99.90;;;;;;4925266;29;20600;-82
2020/12/29 05:06:13;;;;;;;6.97;3.80;;;0.70;99.90;;;;;;4902328;29;20268;-81
2020/12/29 05:08:52;;;;;;;4.43;3.28;;;0.60;99.90;;;;;;4948583;29;20220;-81
2020/12/29 05:11:26;;;;;;;4.82;3.60;;;0.60;99.90;;;;;;4952760;29;20169;-82
2020/12/29 05:13:55;;;;;;;4.95;3.30;;;0.60;99.90;;;;;;4936663;29;20677;-81
2020/12/29 05:16:23;;;;;;;5.32;3.90;;;0.50;99.90;;;;;;4920436;29;20522;-81
2020/12/29 05:18:49;;;;;;;6.35;3.95;;;0.60;99.90;;;;;;4906494;29;20221;-81
2020/12/29 05:21:18;;;;;;;4.10;3.65;;;0.60;99.90;;;;;;4928385;29;20322;-81
2020/12/29 05:23:49;;;;;;;4.13;3.70;;;0.50;99.90;;;;;;4936788;29;20181;-81
2020/12/29 05:26:26;;;;;;;4.03;3.63;;;0.50;99.90;;;;;;4935158;28;20271;-81
2020/12/29 05:28:52;;;;;;;7.82;3.80;;;0.40;99.90;;;;;;4936362;29;20267;-81
2020/12/29 05:31:26;;;;;;;5.88;4.30;;;0.60;99.90;;;;;;4936290;29;20196;-81
2020/12/29 05:33:59;;;;;;;4.03;3.05;;;0.50;99.90;;;;;;4928058;29;20185;-81
2020/12/29 05:36:27;;;;;;;4.75;3.67;;;0.40;99.90;;;;;;4933033;29;20173;-81
2020/12/29 05:39:04;;;;;;;5.43;4.45;;;0.70;99.90;;;;;;4905474;29;20188;-81
2020/12/29 05:41:37;;;;;;;8.70;4.00;;;0.50;99.90;;;;;;4939614;28;20175;-81
2020/12/29 05:44:10;;;;;;;5.18;3.63;;;0.40;99.90;;;;;;4919603;29;20189;-81
2020/12/29 05:46:41;;;;;;;5.80;4.10;;;0.40;99.90;;;;;;4940901;28;20204;-82
2020/12/29 05:49:14;;;;;;;5.57;3.97;;;0.50;99.90;;;;;;4927914;29;20192;-81
2020/12/29 05:51:48;;;;;;;6.32;3.95;;;0.40;99.90;;;;;;4920513;29;20516;-82
2020/12/29 05:54:18;;;;;;;5.05;3.92;;;0.50;99.90;;;;;;4951884;29;20288;-82
2020/12/29 05:56:47;;;;;;;5.10;3.90;;;0.50;99.90;;;;;;4919466;29;20180;-81
2020/12/29 05:59:14;;;;;;;6.75;3.80;;;0.30;99.90;;;;;;4951598;29;20196;-81
2020/12/29 06:01:45;;;;;;;4.18;3.78;;;0.20;99.90;;;;;;4959049;28;20291;-80
2020/12/29 06:04:12;;;;;;;4.57;3.22;;;0.10;99.90;;;;;;4916854;29;20205;-82
2020/12/29 06:06:43;;;;;;;5.57;3.80;;;0.40;99.90;;;;;;4916690;29;20686;-81
2020/12/29 06:09:16;;;;;;;5.90;4.10;;;0.30;99.90;;;;;;4920120;29;20204;-82
2020/12/29 06:11:51;;;;;;;5.68;3.60;;;0.40;99.90;;;;;;4951707;29;20185;-82
2020/12/29 06:14:24;;;;;;;3.80;3.20;;;0.20;99.90;;;;;;4919724;29;20585;-81
2020/12/29 06:16:55;;;;;;;6.88;4.72;;;0.50;99.90;;;;;;4951323;28;20189;-82
2020/12/29 06:19:33;;;;;;;5.97;3.15;;;0.30;99.90;;;;;;4917077;29;20192;-82
2020/12/29 06:22:09;;;;;;;4.22;3.45;;;0.50;99.90;;;;;;4932808;29;20676;-82
2020/12/29 06:24:36;;;;;;;3.58;3.28;;;0.60;99.90;;;;;;4951756;29;20197;-82
2020/12/29 06:27:05;;;;;;;7.00;3.85;;;0.40;99.90;;;;;;4933912;29;20676;-82
2020/12/29 06:29:41;;;;;;;5.22;4.55;;;0.60;99.90;;;;;;4951340;29;20196;-82
2020/12/29 06:32:19;;;;;;;4.55;3.22;;;0.60;99.90;;;;;;4950407;29;20500;-82
2020/12/29 06:34:50;;;;;;;8.05;4.50;;;0.40;99.90;;;;;;4935523;28;20224;-82
2020/12/29 06:37:25;;;;;;;5.28;3.40;;;0.40;99.90;;;;;;4937995;29;20607;-82
2020/12/29 06:39:59;;;;;;;3.42;3.00;;;0.40;99.90;;;;;;4941459;28;20535;-82
2020/12/29 06:42:25;;;;;;;5.65;3.85;;;0.60;99.90;;;;;;4935382;29;20258;-82
2020/12/29 06:44:57;;;;;;;5.95;3.40;;;0.30;99.90;;;;;;4926856;29;20220;-82
2020/12/29 06:47:28;;;;;;;6.68;3.42;;;0.50;99.90;;;;;;4906905;29;20280;-82
2020/12/29 06:49:59;;;;;;;5.82;3.95;;;0.50;99.90;;;;;;4916639;29;20181;-82
2020/12/29 06:52:27;;;;;;;4.55;3.63;;;0.50;99.90;;;;;;4932579;29;20204;-82
2020/12/29 06:55:02;;;;;;;4.78;3.75;;;0.40;99.90;;;;;;4916389;29;20252;-82
2020/12/29 06:57:33;;;;;;;6.75;3.42;;;0.50;99.90;;;;;;4910160;29;20650;-82
2020/12/29 07:00:10;;;;;;;4.38;3.22;;;0.30;99.90;;;;;;4944844;29;20272;-81
2020/12/29 07:02:44;;;;;;;4.75;3.60;;;0.30;99.90;;;;;;4954804;28;20208;-84
2020/12/29 07:05:26;;;;;;;4.63;3.20;;;0.30;99.90;;;;;;4929460;29;20193;-84
2020/12/29 07:08:05;;;;;;;3.80;3.40;;;0.40;99.90;;;;;;4936335;29;20216;-83
2020/12/29 07:10:45;;;;;;;4.10;3.47;;;0.50;99.90;;;;;;4950166;28;20207;-83
2020/12/29 07:13:18;;;;;;;6.30;4.30;;;0.50;99.90;;;;;;4939281;29;20535;-83
2020/12/29 07:15:53;;;;;;;4.35;3.85;;;0.60;99.90;;;;;;4939757;29;20251;-84
2020/12/29 07:18:25;;;;;;;5.85;4.28;;;0.70;99.90;;;;;;4938511;29;20258;-83
2020/12/29 07:20:58;;;;;;;6.30;3.92;;;0.80;99.90;;;;;;4939050;29;20529;-83
2020/12/29 07:23:28;;;;;;;4.72;4.13;;;0.70;99.90;;;;;;4939095;28;20311;-83
2020/12/29 07:26:02;;;;;;;7.82;5.03;;;0.70;99.90;;;;;;4954353;28;20189;-83
2020/12/29 07:28:30;;;;;;;6.20;4.50;;;0.80;99.90;;;;;;4947404;29;20188;-83
2020/12/29 07:30:56;;;;;;;8.00;4.30;;;0.90;99.90;;;;;;4970759;28;20199;-83
2020/12/29 07:33:32;;;;;;;9.25;5.13;;;1.00;99.90;;;;;;4943802;29;20472;-83
2020/12/29 07:36:06;;;;;;;8.50;4.93;;;1.10;99.90;;;;;;4919770;29;20256;-83
2020/12/29 07:38:35;;;;;;;10.70;6.50;;;1.20;99.90;;;;;;4924595;29;20268;-83
2020/12/29 07:41:06;;;;;;;9.10;6.93;;;1.10;99.90;;;;;;4953631;29;20192;-83
2020/12/29 07:43:34;;;;;;;8.88;6.80;;;1.30;99.90;;;;;;4938191;29;20534;-84
2020/12/29 07:46:04;;;;;;;9.05;6.43;;;1.50;99.90;;;;;;4938723;29;20204;-84
2020/12/29 07:48:33;;;;;;;10.20;7.05;;;1.50;99.90;;;;;;4925687;29;20196;-84
2020/12/29 07:51:02;;;;;;;13.90;9.20;;;1.50;99.90;;;;;;4903901;29;20198;-84
2020/12/29 07:53:31;;;;;;;14.73;8.60;;;1.60;99.90;;;;;;4919488;29;20216;-83
2020/12/29 07:55:57;;;;;;;11.68;7.82;;;1.60;99.90;;;;;;4903788;29;20594;-84
2020/12/29 07:58:30;;;;;;;13.50;8.02;;;1.90;99.90;;;;;;4938175;29;20184;-84
2020/12/29 08:01:05;;;;;;;13.55;8.20;;;1.70;99.90;;;;;;4952193;29;20204;-84
2020/12/29 08:03:33;;;;;;;15.60;9.98;;;1.90;99.90;;;;;;4934985;29;20513;-83
2020/12/29 08:06:02;;;;;;;13.30;9.25;;;2.00;99.90;;;;;;4919762;29;20193;-83
2020/12/29 08:08:30;;;;;;;14.85;9.43;;;2.00;99.90;;;;;;4954477;28;20204;-83
2020/12/29 08:11:03;;;;;;;14.88;9.50;;;1.90;99.90;;;;;;4951731;28;20193;-83
2020/12/29 08:13:29;;;;;;;14.45;9.82;;;1.90;99.90;;;;;;4903417;29;20289;-83
2020/12/29 08:15:57;;;;;;;14.83;9.37;;;2.20;99.90;;;;;;4934876;29;20308;-83
2020/12/29 08:18:23;;;;;;;15.50;9.95;;;2.10;99.90;;;;;;4919416;29;20473;-82
2020/12/29 08:20:56;;;;;;;14.77;9.70;;;2.10;99.90;;;;;;4918965;29;20236;-82
2020/12/29 08:23:29;;;;;;;11.07;8.00;;;2.30;99.90;;;;;;4941579;29;20447;-82
2020/12/29 08:29:42;;;;;;;13.95;8.45;;;2.40;99.90;;;;;;4925775;29;20191;-83
2020/12/29 08:32:11;;;;;;;12.82;8.48;;;2.20;99.90;;;;;;4926893;29;20197;-82
2020/12/29 08:34:45;;;;;;;13.13;8.32;;;2.40;99.90;;;;;;4903017;29;20220;-82
2020/12/29 08:37:18;;;;;;;11.93;8.85;;;2.30;99.90;;;;;;4924610;29;20188;-81
2020/12/29 08:40:12;;;;;;;10.00;8.30;;;2.20;99.90;;;;;;4939193;28;20188;-83
2020/12/29 08:42:51;;;;;;;12.82;8.35;;;2.30;99.90;;;;;;4930332;29;20185;-82
2020/12/29 08:45:24;;;;;;;15.40;9.05;;;2.40;99.90;;;;;;4918419;29;20199;-82
2020/12/29 08:47:58;;;;;;;12.23;8.65;;;2.40;99.90;;;;;;4934012;29;20231;-81
2020/12/29 08:50:31;;;;;;;13.63;9.27;;;2.40;99.90;;;;;;4919072;29;20572;-82
2020/12/29 08:53:07;;;;;;;14.75;8.27;;;2.50;99.90;;;;;;4953692;29;20210;-82
2020/12/29 08:55:39;;;;;;;12.65;8.80;;;2.40;99.90;;;;;;4972296;28;20200;-82
2020/12/29 08:58:13;;;;;;;12.45;8.57;;;2.50;99.90;;;;;;4918944;29;20220;-82
2020/12/29 09:00:45;;;;;;;11.80;9.32;;;2.30;99.90;;;;;;4936635;28;20193;-81
2020/12/29 09:03:25;;;;;;;11.27;9.88;;;2.40;99.90;;;;;;4902133;29;20185;-81
2020/12/29 09:05:54;;;;;;;12.02;9.57;;;2.40;99.90;;;;;;4929541;29;20250;-82
2020/12/29 09:08:26;;;;;;;14.48;9.30;;;2.50;99.90;;;;;;4947411;29;20222;-82
2020/12/29 09:11:13;;;;;;;14.45;10.30;;;2.60;99.90;;;;;;4983642;28;20195;-82
2020/12/29 09:14:03;;;;;;;16.48;9.90;;;2.50;99.90;;;;;;4919923;29;20582;-82
2020/12/29 09:16:33;;;;;;;13.23;8.93;;;2.50;99.90;;;;;;4933051;29;20189;-82
2020/12/29 09:19:13;;;;;;;13.68;9.73;;;2.60;99.90;;;;;;4948872;28;20561;-82
2020/12/29 09:21:41;;;;;;;13.15;9.88;;;2.60;99.90;;;;;;4949293;28;20182;-81
2020/12/29 09:24:11;;;;;;;13.80;10.05;;;2.90;99.90;;;;;;4933718;29;20544;-81
2020/12/29 09:26:49;;;;;;;15.93;10.50;;;2.80;99.90;;;;;;4933584;29;20224;-82
2020/12/29 09:29:21;;;;;;;16.35;9.25;;;3.00;99.90;;;;;;4933628;28;20170;-81
2020/12/29 09:31:54;;;;;;;13.55;9.38;;;2.40;99.90;;;;;;4932964;29;20190;-81
2020/12/29 09:34:24;;;;;;;14.07;9.60;;;2.80;99.90;;;;;;4917662;29;20209;-81
2020/12/29 09:36:52;;;;;;;11.55;8.73;;;3.20;99.90;;;;;;4933221;29;20185;-81
2020/12/29 09:39:20;;;;;;;13.48;8.48;;;3.10;99.90;;;;;;4927797;29;20220;-80
2020/12/29 09:41:59;;;;;;;12.13;8.15;;;3.10;99.90;;;;;;4956369;28;20188;-80
2020/12/29 09:44:27;;;;;;;12.73;8.95;;;3.10;99.90;;;;;;4971158;28;20230;-80
2020/12/29 09:46:57;;;;;;;14.83;9.17;;;3.30;99.90;;;;;;4923794;29;20203;-81
2020/12/29 09:49:23;;;;;;;12.07;8.75;;;3.20;99.90;;;;;;4933365;29;20485;-80
2020/12/29 09:51:56;;;;;;;11.15;8.48;;;3.20;99.90;;;;;;4933474;29;20524;-80
2020/12/29 09:54:22;;;;;;;10.35;7.95;;;3.50;99.90;;;;;;4917350;29;20213;-80
2020/12/29 09:56:51;;;;;;;11.80;8.90;;;3.20;99.90;;;;;;4917975;29;20216;-80
2020/12/29 09:59:17;;;;;;;11.43;8.10;;;3.30;99.90;;;;;;4932827;29;20904;-81
2020/12/29 10:01:43;;;;;;;11.93;8.60;;;2.90;99.90;;;;;;4908357;29;20180;-81
2020/12/29 10:04:11;;;;;;;11.30;8.13;;;3.30;99.90;;;;;;4919917;29;20492;-81
2020/12/29 10:06:45;;;;;;;12.05;9.77;;;3.30;99.90;;;;;;4935175;29;20192;-80
2020/12/29 10:09:12;;;;;;;13.88;8.45;;;3.30;99.90;;;;;;4947546;29;20187;-83
2020/12/29 10:11:40;;;;;;;12.63;8.40;;;3.40;99.90;;;;;;4938398;29;20193;-81
2020/12/29 10:14:10;;;;;;;15.25;9.00;;;3.40;99.90;;;;;;4931695;29;20508;-80
2020/12/29 10:16:39;;;;;;;20.00;9.65;;;3.50;99.90;;;;;;4951085;29;20177;-80
2020/12/29 10:19:07;;;;;;;19.15;9.52;;;3.50;99.90;;;;;;4961155;28;20219;-80
2020/12/29 10:21:43;;;;;;;23.20;9.57;;;3.70;99.90;;;;;;4938081;28;20194;-81
2020/12/29 10:24:12;;;;;;;15.93;9.85;;;3.70;99.90;;;;;;4935471;29;20173;-80
2020/12/29 10:26:40;;;;;;;15.57;9.70;;;3.50;99.90;;;;;;4935360;29;20193;-81
2020/12/29 10:29:06;;;;;;;15.90;10.25;;;3.60;99.90;;;;;;4978093;28;20247;-81
2020/12/29 10:31:35;;;;;;;15.30;9.90;;;3.50;99.90;;;;;;4897753;29;20180;-80
2020/12/29 10:34:05;;;;;;;13.55;10.70;;;3.60;99.90;;;;;;4951044;28;20902;-82
2020/12/29 10:36:35;;;;;;;18.05;10.32;;;3.70;99.90;;;;;;4951133;28;20231;-80
2020/12/29 10:39:09;;;;;;;14.57;10.00;;;3.70;99.90;;;;;;4938472;29;20525;-79
2020/12/29 10:41:38;;;;;;;20.17;11.63;;;3.80;99.90;;;;;;4921000;29;20526;-83
2020/12/29 10:44:11;;;;;;;17.15;11.07;;;3.80;99.90;;;;;;4950803;29;20267;-82
2020/12/29 10:46:48;;;;;;;21.17;12.05;;;3.80;99.90;;;;;;4935495;29;20223;-82
2020/12/29 10:49:16;;;;;;;17.60;11.43;;;3.70;99.90;;;;;;4948690;29;20566;-79
2020/12/29 10:51:44;;;;;;;20.40;13.03;;;3.90;99.90;;;;;;4935018;29;20223;-79
2020/12/29 10:54:12;;;;;;;17.88;11.40;;;3.80;99.90;;;;;;4934871;29;20506;-82
2020/12/29 10:56:38;;;;;;;20.92;12.27;;;3.80;99.90;;;;;;4966874;28;20180;-80
2020/12/29 10:59:07;;;;;;;31.43;13.73;;;3.90;99.90;;;;;;4935670;29;20215;-80
2020/12/29 11:01:35;;;;;;;21.75;13.68;;;3.70;99.90;;;;;;4935964;29;20432;-81
2020/12/29 11:04:05;;;;;;;23.90;14.90;;;3.80;99.90;;;;;;4935510;29;20284;-81
2020/12/29 11:06:36;;;;;;;21.08;13.10;;;3.80;99.90;;;;;;4934912;29;20557;-79
2020/12/29 11:09:04;;;;;;;25.33;14.60;;;3.90;99.90;;;;;;4934981;28;20181;-79
2020/12/29 11:11:33;;;;;;;28.05;15.65;;;3.80;99.90;;;;;;4935954;28;20557;-81
2020/12/29 11:13:59;;;;;;;22.65;14.52;;;4.00;99.90;;;;;;4938188;29;20511;-82
2020/12/29 11:16:29;;;;;;;20.52;15.00;;;4.00;99.90;;;;;;4947015;29;20173;-80
2020/12/29 11:18:55;;;;;;;27.50;15.80;;;3.70;99.90;;;;;;4933683;29;20216;-80
2020/12/29 11:21:23;;;;;;;27.42;15.88;;;3.50;99.90;;;;;;4935254;29;20452;-80
2020/12/29 11:23:59;;;;;;;29.48;16.45;;;4.20;99.90;;;;;;4934671;29;20189;-80
2020/12/29 11:26:25;;;;;;;31.05;18.70;;;3.70;99.90;;;;;;4934972;29;20180;-79
2020/12/29 11:29:01;;;;;;;29.50;18.15;;;4.30;99.90;;;;;;4935256;29;20177;-82
2020/12/29 11:31:31;;;;;;;31.63;17.40;;;4.20;99.90;;;;;;4935171;29;20177;-81
2020/12/29 11:34:02;;;;;;;30.27;16.73;;;4.40;99.90;;;;;;4936072;29;20181;-82
2020/12/29 11:36:32;;;;;;;38.58;19.48;;;3.90;99.90;;;;;;4950774;29;20270;-80
2020/12/29 11:39:00;;;;;;;33.65;18.70;;;4.20;99.90;;;;;;4950297;29;20201;-80
2020/12/29 11:41:28;;;;;;;29.25;17.42;;;3.80;99.90;;;;;;4934788;29;20571;-80
2020/12/29 11:44:01;;;;;;;30.35;19.83;;;4.30;99.90;;;;;;4934329;29;20181;-79
2020/12/29 11:46:32;;;;;;;31.98;19.27;;;4.40;99.90;;;;;;4922921;29;20524;-79
2020/12/29 11:48:58;;;;;;;30.08;17.13;;;4.40;99.90;;;;;;4936315;29;20251;-80
2020/12/29 11:51:27;;;;;;;32.83;18.15;;;4.30;99.90;;;;;;4938433;29;20268;-79
2020/12/29 11:53:58;;;;;;;34.22;19.20;;;4.70;99.90;;;;;;4938635;29;20184;-80
2020/12/29 11:56:24;;;;;;;25.80;16.55;;;4.50;99.90;;;;;;4936974;29;20231;-81
2020/12/29 11:58:50;;;;;;;35.90;18.10;;;4.50;99.90;;;;;;4969517;28;20529;-81
2020/12/29 12:01:21;;;;;;;33.83;20.13;;;4.60;99.90;;;;;;4943522;29;20177;-81
2020/12/29 12:03:49;;;;;;;34.80;18.73;;;4.70;99.90;;;;;;4934225;29;20436;-80
2020/12/29 12:06:15;;;;;;;32.83;19.93;;;4.70;99.90;;;;;;4953445;29;20271;-80
2020/12/29 12:08:41;;;;;;;27.23;17.67;;;4.70;99.90;;;;;;4937883;29;20466;-84
2020/12/29 12:11:09;;;;;;;29.42;17.27;;;4.80;99.90;;;;;;4937670;29;20952;-80
2020/12/29 12:13:37;;;;;;;31.50;17.57;;;4.80;99.90;;;;;;4953638;29;20224;-80
2020/12/29 12:16:05;;;;;;;35.15;17.90;;;4.80;99.90;;;;;;4938133;29;20488;-80
2020/12/29 12:18:31;;;;;;;28.23;18.47;;;4.80;99.90;;;;;;4936233;29;20224;-79
2020/12/29 12:21:01;;;;;;;27.90;18.17;;;4.90;99.90;;;;;;4941760;29;20938;-79
2020/12/29 12:23:26;;;;;;;34.67;18.38;;;4.90;99.90;;;;;;4934526;29;20452;-80
2020/12/29 12:25:55;;;;;;;27.30;17.40;;;4.80;99.90;;;;;;4963272;28;20236;-80
2020/12/29 12:28:27;;;;;;;30.67;18.55;;;4.90;99.90;;;;;;4937337;29;20193;-84
2020/12/29 12:31:02;;;;;;;26.10;17.30;;;4.90;99.90;;;;;;4926541;29;20200;-80
2020/12/29 12:33:31;;;;;;;23.75;15.50;;;4.90;99.90;;;;;;4962187;28;20700;-81
2020/12/29 12:35:59;;;;;;;24.70;15.10;;;4.90;99.90;;;;;;4937647;29;20212;-85
2020/12/29 12:38:27;;;;;;;21.30;14.25;;;4.90;99.90;;;;;;4947946;29;20461;-81
2020/12/29 12:40:53;;;;;;;25.23;14.50;;;5.00;99.90;;;;;;4984654;28;20279;-81
2020/12/29 12:43:19;;;;;;;24.50;15.43;;;5.10;99.90;;;;;;4965563;28;20443;-82
2020/12/29 12:45:50;;;;;;;20.35;12.73;;;5.10;99.90;;;;;;4938038;29;20493;-81
2020/12/29 12:48:16;;;;;;;24.40;14.27;;;5.10;99.90;;;;;;4953136;29;20236;-82
2020/12/29 12:50:46;;;;;;;22.03;13.97;;;5.20;99.90;;;;;;4925654;29;20209;-81
2020/12/29 12:53:17;;;;;;;25.90;12.50;;;5.10;99.90;;;;;;4952753;29;20485;-81
2020/12/29 12:55:43;;;;;;;24.90;13.18;;;5.10;99.90;;;;;;4937282;29;20209;-81
2020/12/29 12:58:13;;;;;;;22.73;12.38;;;5.10;99.90;;;;;;4939637;29;20240;-81
2020/12/29 13:00:41;;;;;;;17.45;12.05;;;5.20;99.90;;;;;;4952469;29;20271;-82
2020/12/29 13:03:12;;;;;;;18.35;11.40;;;5.30;99.90;;;;;;4933259;28;20181;-81
2020/12/29 13:05:45;;;;;;;18.55;10.23;;;5.40;99.90;;;;;;4968487;28;20224;-82
2020/12/29 13:08:15;;;;;;;18.35;11.40;;;5.40;99.90;;;;;;4937477;29;20243;-81
2020/12/29 13:10:48;;;;;;;19.23;11.32;;;5.50;99.90;;;;;;4968936;28;20185;-81